Time,TemperatureF,DewpointF,PressureIn,WindDirection,WindDirectionDegrees,WindSpeedMPH,WindSpeedGustMPH,Humidity,HourlyPrecipIn,Conditions,Clouds,dailyrainin,SoftwareType,DateUTC
2013-02-22 00:00:00,36.9,27.0,27.99,East,82,1.0,1.0,67,0.00,,,0.00,Wunderground v.1.15,2013-02-22 08:00:00,
2013-02-22 00:05:00,36.9,27.0,27.99,East,82,0.0,1.0,67,0.00,,,0.00,Wunderground v.1.15,2013-02-22 08:05:00,
2013-02-22 00:10:00,36.8,27.2,27.99,East,82,0.0,0.0,68,0.00,,,0.00,Wunderground v.1.15,2013-02-22 08:10:00,
2013-02-22 00:20:00,37.1,27.2,28.00,East,97,0.0,0.0,67,0.00,,,0.00,Wunderground v.1.15,2013-02-22 08:20:00,
2013-02-22 00:30:00,37.3,27.3,28.00,East,97,0.0,0.0,67,0.00,,,0.00,Wunderground v.1.15,2013-02-22 08:30:00,
2013-02-22 00:35:00,37.2,27.2,28.00,East,98,0.0,0.0,67,0.00,,,0.00,Wunderground v.1.15,2013-02-22 08:35:00,
2013-02-22 00:45:00,37.0,27.1,28.00,East,98,0.0,0.0,67,0.00,,,0.00,Wunderground v.1.15,2013-02-22 08:45:00,
2013-02-22 00:55:00,36.8,26.9,28.00,East,94,0.0,0.0,67,0.00,,,0.00,Wunderground v.1.15,2013-02-22 08:55:00,
2013-02-22 01:00:00,36.6,27.0,28.00,East,94,0.0,0.0,68,0.00,,,0.00,Wunderground v.1.15,2013-02-22 09:00:00,
2013-02-22 01:10:00,36.4,26.8,28.00,East,94,0.0,0.0,68,0.00,,,0.00,Wunderground v.1.15,2013-02-22 09:10:00,
2013-02-22 01:20:00,36.0,26.5,28.00,East,94,0.0,0.0,68,0.00,,,0.00,Wunderground v.1.15,2013-02-22 09:20:00,
2013-02-22 01:30:00,35.7,26.9,28.00,East,94,0.0,0.0,70,0.00,,,0.00,Wunderground v.1.15,2013-02-22 09:30:00,
2013-02-22 01:35:00,35.5,26.7,28.00,East,94,0.0,0.0,70,0.00,,,0.00,Wunderground v.1.15,2013-02-22 09:35:00,
2013-02-22 01:45:00,35.4,26.6,28.00,East,99,0.0,0.0,70,0.00,,,0.00,Wunderground v.1.15,2013-02-22 09:45:00,
2013-02-22 01:55:00,35.5,26.7,28.00,East,84,0.0,0.0,70,0.00,,,0.00,Wunderground v.1.15,2013-02-22 09:55:00,
2013-02-22 02:00:00,35.5,26.7,27.99,ESE,117,0.0,1.0,70,0.00,,,0.00,Wunderground v.1.15,2013-02-22 10:00:00,
2013-02-22 02:05:00,35.6,26.8,28.00,ESE,117,0.0,1.0,70,0.00,,,0.00,Wunderground v.1.15,2013-02-22 10:05:00,
2013-02-22 02:15:00,35.6,26.8,27.99,ESE,116,0.0,0.0,70,0.00,,,0.00,Wunderground v.1.15,2013-02-22 10:15:00,
2013-02-22 02:25:00,35.4,26.6,27.99,ESE,113,0.0,0.0,70,0.00,,,0.00,Wunderground v.1.15,2013-02-22 10:25:00,
2013-02-22 02:30:00,35.3,26.5,27.99,ESE,114,0.0,0.0,70,0.00,,,0.00,Wunderground v.1.15,2013-02-22 10:30:00,
2013-02-22 02:40:00,35.0,26.2,27.99,ESE,113,0.0,0.0,70,0.00,,,0.00,Wunderground v.1.15,2013-02-22 10:40:00,
2013-02-22 02:50:00,34.9,26.4,27.99,East,95,0.0,0.0,71,0.00,,,0.00,Wunderground v.1.15,2013-02-22 10:50:00,
2013-02-22 03:00:00,34.6,26.2,27.99,ENE,73,0.0,0.0,71,0.00,,,0.00,Wunderground v.1.15,2013-02-22 11:00:00,
2013-02-22 03:10:00,34.6,26.2,27.99,ESE,106,0.0,0.0,71,0.00,,,0.00,Wunderground v.1.15,2013-02-22 11:10:00,
2013-02-22 03:20:00,34.6,26.2,27.99,ENE,74,0.0,0.0,71,0.00,,,0.00,Wunderground v.1.15,2013-02-22 11:20:00,
2013-02-22 03:30:00,34.4,26.0,27.99,ENE,78,0.0,0.0,71,0.00,,,0.00,Wunderground v.1.15,2013-02-22 11:30:00,
2013-02-22 03:40:00,34.2,25.8,27.99,ENE,74,0.0,0.0,71,0.00,,,0.00,Wunderground v.1.15,2013-02-22 11:40:00,
2013-02-22 03:50:00,34.1,26.0,27.99,East,80,0.0,1.0,72,0.00,,,0.00,Wunderground v.1.15,2013-02-22 11:50:00,
2013-02-22 03:55:00,34.1,26.0,28.00,ESE,113,0.0,1.0,72,0.00,,,0.00,Wunderground v.1.15,2013-02-22 11:55:00,
2013-02-22 04:00:00,34.3,25.9,28.00,ESE,112,0.0,0.0,71,0.00,,,0.00,Wunderground v.1.15,2013-02-22 12:00:00,
2013-02-22 04:10:00,34.5,25.7,27.99,ESE,109,0.0,0.0,70,0.00,,,0.00,Wunderground v.1.15,2013-02-22 12:10:00,
2013-02-22 04:20:00,34.6,25.8,27.99,SE,136,0.0,0.0,70,0.00,,,0.00,Wunderground v.1.15,2013-02-22 12:20:00,
2013-02-22 04:30:00,34.6,25.8,28.00,SE,127,0.0,1.0,70,0.00,,,0.00,Wunderground v.1.15,2013-02-22 12:30:00,
2013-02-22 04:40:00,34.9,25.8,27.99,East,92,1.0,1.0,69,0.00,,,0.00,Wunderground v.1.15,2013-02-22 12:40:00,
2013-02-22 04:50:00,34.9,25.8,28.00,East,85,0.0,0.0,69,0.00,,,0.00,Wunderground v.1.15,2013-02-22 12:50:00,
2013-02-22 05:00:00,34.6,25.5,28.00,SE,124,0.0,0.0,69,0.00,,,0.00,Wunderground v.1.15,2013-02-22 13:00:00,
2013-02-22 05:10:00,34.7,25.6,28.00,ESE,119,0.0,0.0,69,0.00,,,0.00,Wunderground v.1.15,2013-02-22 13:10:00,
2013-02-22 05:15:00,34.7,25.6,28.00,ESE,119,0.0,0.0,69,0.00,,,0.00,Wunderground v.1.15,2013-02-22 13:15:00,
2013-02-22 05:25:00,34.7,25.2,28.01,SE,125,0.0,1.0,68,0.00,,,0.00,Wunderground v.1.15,2013-02-22 13:25:00,
2013-02-22 05:30:00,34.8,25.3,28.01,ESE,121,0.0,1.0,68,0.00,,,0.00,Wunderground v.1.15,2013-02-22 13:30:00,
2013-02-22 05:40:00,34.8,25.3,28.01,East,84,1.0,1.0,68,0.00,,,0.00,Wunderground v.1.15,2013-02-22 13:40:00,
2013-02-22 05:50:00,34.7,25.2,28.02,ESE,116,0.0,0.0,68,0.00,,,0.00,Wunderground v.1.15,2013-02-22 13:50:00,
2013-02-22 05:55:00,34.7,24.9,28.02,ESE,105,0.0,0.0,67,0.00,,,0.00,Wunderground v.1.15,2013-02-22 13:55:00,
2013-02-22 06:00:00,34.5,25.0,28.02,ESE,103,0.0,0.0,68,0.00,,,0.00,Wunderground v.1.15,2013-02-22 14:00:00,
2013-02-22 06:10:00,34.1,24.6,28.02,East,101,0.0,0.0,68,0.00,,,0.00,Wunderground v.1.15,2013-02-22 14:10:00,
2013-02-22 06:20:00,33.7,24.6,28.02,East,100,0.0,0.0,69,0.00,,,0.00,Wunderground v.1.15,2013-02-22 14:20:00,
2013-02-22 06:25:00,33.5,24.8,28.02,East,97,0.0,0.0,70,0.00,,,0.00,Wunderground v.1.15,2013-02-22 14:25:00,
2013-02-22 06:35:00,33.3,24.6,28.02,ENE,68,1.0,1.0,70,0.00,,,0.00,Wunderground v.1.15,2013-02-22 14:35:00,
2013-02-22 06:40:00,33.3,24.9,28.02,ENE,65,0.0,3.0,71,0.00,,,0.00,Wunderground v.1.15,2013-02-22 14:40:00,
2013-02-22 06:50:00,33.3,24.9,28.02,ENE,57,1.0,1.0,71,0.00,,,0.00,Wunderground v.1.15,2013-02-22 14:50:00,
2013-02-22 07:00:00,33.2,24.5,28.03,ENE,57,0.0,0.0,70,0.00,,,0.00,Wunderground v.1.15,2013-02-22 15:00:00,
2013-02-22 07:10:00,33.4,24.7,28.03,ESE,103,0.0,1.0,70,0.00,,,0.00,Wunderground v.1.15,2013-02-22 15:10:00,
2013-02-22 07:20:00,33.7,24.6,28.04,NE,51,0.0,0.0,69,0.00,,,0.00,Wunderground v.1.15,2013-02-22 15:20:00,
2013-02-22 07:30:00,34.1,25.0,28.04,NE,51,0.0,0.0,69,0.00,,,0.00,Wunderground v.1.15,2013-02-22 15:30:00,
2013-02-22 07:40:00,34.4,24.6,28.05,NE,55,0.0,0.0,67,0.00,,,0.00,Wunderground v.1.15,2013-02-22 15:40:00,
2013-02-22 07:45:00,34.8,25.0,28.05,ENE,76,0.0,0.0,67,0.00,,,0.00,Wunderground v.1.15,2013-02-22 15:45:00,
2013-02-22 07:55:00,36.0,25.0,28.05,ESE,121,0.0,0.0,64,0.00,,,0.00,Wunderground v.1.15,2013-02-22 15:55:00,
2013-02-22 08:00:00,36.8,25.4,28.05,ESE,115,0.0,0.0,63,0.00,,,0.00,Wunderground v.1.15,2013-02-22 16:00:00,
2013-02-22 08:10:00,38.1,25.4,28.05,ESE,115,0.0,0.0,60,0.00,,,0.00,Wunderground v.1.15,2013-02-22 16:10:00,
2013-02-22 08:20:00,39.4,25.8,28.06,ESE,115,0.0,0.0,58,0.00,,,0.00,Wunderground v.1.15,2013-02-22 16:20:00,
2013-02-22 08:25:00,40.2,26.2,28.06,ESE,115,0.0,0.0,57,0.00,,,0.00,Wunderground v.1.15,2013-02-22 16:25:00,
2013-02-22 08:35:00,41.9,26.0,28.06,SSE,164,0.0,0.0,53,0.00,,,0.00,Wunderground v.1.15,2013-02-22 16:35:00,
2013-02-22 08:45:00,43.8,25.9,28.06,SSE,164,0.0,0.0,49,0.00,,,0.00,Wunderground v.1.15,2013-02-22 16:45:00,
2013-02-22 08:55:00,46.3,27.7,28.07,SSE,164,0.0,0.0,48,0.00,,,0.00,Wunderground v.1.15,2013-02-22 16:55:00,
2013-02-22 09:00:00,47.6,27.3,28.06,SSE,164,0.0,0.0,45,0.00,,,0.00,Wunderground v.1.15,2013-02-22 17:00:00,
2013-02-22 09:10:00,48.8,27.3,28.06,SW,234,1.0,1.0,43,0.00,,,0.00,Wunderground v.1.15,2013-02-22 17:10:00,
2013-02-22 09:20:00,49.9,27.7,28.06,SW,229,1.0,4.0,42,0.00,,,0.00,Wunderground v.1.15,2013-02-22 17:20:00,
2013-02-22 09:30:00,50.3,28.1,28.06,SW,236,1.0,1.0,42,0.00,,,0.00,Wunderground v.1.15,2013-02-22 17:30:00,
2013-02-22 09:35:00,50.5,27.7,28.06,SW,236,0.0,1.0,41,0.00,,,0.00,Wunderground v.1.15,2013-02-22 17:35:00,
2013-02-22 09:45:00,51.3,28.4,28.06,SW,236,0.0,0.0,41,0.00,,,0.00,Wunderground v.1.15,2013-02-22 17:45:00,
2013-02-22 09:55:00,52.1,29.1,28.05,SW,234,0.0,0.0,41,0.00,,,0.00,Wunderground v.1.15,2013-02-22 17:55:00,
2013-02-22 10:00:00,52.6,29.5,28.05,WSW,240,0.0,0.0,41,0.00,,,0.00,Wunderground v.1.15,2013-02-22 18:00:00,
2013-02-22 10:10:00,53.6,27.9,28.05,West,281,0.0,0.0,37,0.00,,,0.00,Wunderground v.1.15,2013-02-22 18:10:00,
2013-02-22 10:20:00,54.7,27.6,28.05,SW,225,1.0,1.0,35,0.00,,,0.00,Wunderground v.1.15,2013-02-22 18:20:00,
2013-02-22 10:30:00,55.5,28.3,28.05,WSW,242,1.0,1.0,35,0.00,,,0.00,Wunderground v.1.15,2013-02-22 18:30:00,
2013-02-22 10:40:00,56.2,26.7,28.05,SSW,211,2.0,2.0,32,0.00,,,0.00,Wunderground v.1.15,2013-02-22 18:40:00,
2013-02-22 10:45:00,56.4,28.3,28.06,SW,220,2.0,2.0,34,0.00,,,0.00,Wunderground v.1.15,2013-02-22 18:45:00,
2013-02-22 10:55:00,57.2,26.0,28.06,WSW,252,1.0,4.0,30,0.00,,,0.00,Wunderground v.1.15,2013-02-22 18:55:00,
2013-02-22 11:00:00,58.0,26.7,28.05,SW,230,1.0,1.0,30,0.00,,,0.00,Wunderground v.1.15,2013-02-22 19:00:00,
2013-02-22 11:10:00,59.1,23.3,28.05,NNE,31,1.0,1.0,25,0.00,,,0.00,Wunderground v.1.15,2013-02-22 19:10:00,
2013-02-22 11:15:00,59.5,23.6,28.04,SSW,198,1.0,1.0,25,0.00,,,0.00,Wunderground v.1.15,2013-02-22 19:15:00,
2013-02-22 11:25:00,59.3,25.3,28.04,SW,221,1.0,2.0,27,0.00,,,0.00,Wunderground v.1.15,2013-02-22 19:25:00,
2013-02-22 11:35:00,59.6,23.7,28.03,SSW,205,1.0,2.0,25,0.00,,,0.00,Wunderground v.1.15,2013-02-22 19:35:00,
2013-02-22 11:40:00,59.9,23.9,28.03,SW,217,2.0,2.0,25,0.00,,,0.00,Wunderground v.1.15,2013-02-22 19:40:00,
2013-02-22 11:45:00,60.2,24.2,28.03,SW,236,2.0,2.0,25,0.00,,,0.00,Wunderground v.1.15,2013-02-22 19:45:00,
2013-02-22 11:50:00,60.2,25.1,28.03,WNW,288,2.0,2.0,26,0.00,,,0.00,Wunderground v.1.15,2013-02-22 19:50:00,
2013-02-22 12:00:00,61.0,24.9,28.03,SW,215,1.0,1.0,25,0.00,,,0.00,Wunderground v.1.15,2013-02-22 20:00:00,
2013-02-22 12:10:00,61.6,25.4,28.03,North,5,1.0,1.0,25,0.00,,,0.00,Wunderground v.1.15,2013-02-22 20:10:00,
2013-02-22 12:20:00,61.9,24.7,28.03,NE,45,2.0,2.0,24,0.00,,,0.00,Wunderground v.1.15,2013-02-22 20:20:00,
2013-02-22 12:25:00,62.1,25.8,28.03,NNE,15,2.0,2.0,25,0.00,,,0.00,Wunderground v.1.15,2013-02-22 20:25:00,
2013-02-22 12:35:00,62.6,22.1,28.02,North,355,0.0,1.0,21,0.00,,,0.00,Wunderground v.1.15,2013-02-22 20:35:00,
2013-02-22 12:45:00,62.7,25.3,28.01,NNW,333,1.0,1.0,24,0.00,,,0.00,Wunderground v.1.15,2013-02-22 20:45:00,
2013-02-22 12:55:00,63.3,22.7,28.00,NE,46,0.0,1.0,21,0.00,,,0.00,Wunderground v.1.15,2013-02-22 20:55:00,
2013-02-22 13:00:00,63.5,25.0,28.00,West,268,1.0,1.0,23,0.00,,,0.00,Wunderground v.1.15,2013-02-22 21:00:00,
2013-02-22 13:10:00,63.7,24.1,28.00,NNW,327,0.0,0.0,22,0.00,,,0.00,Wunderground v.1.15,2013-02-22 21:10:00,
2013-02-22 13:20:00,63.8,24.2,27.99,SW,224,1.0,3.0,22,0.00,,,0.00,Wunderground v.1.15,2013-02-22 21:20:00,
2013-02-22 13:30:00,64.7,23.8,27.99,North,355,1.0,3.0,21,0.00,,,0.00,Wunderground v.1.15,2013-02-22 21:30:00,
2013-02-22 13:40:00,65.5,25.6,27.98,North,355,1.0,1.0,22,0.00,,,0.00,Wunderground v.1.15,2013-02-22 21:40:00,
2013-02-22 13:45:00,65.7,23.5,27.98,NE,39,1.0,1.0,20,0.00,,,0.00,Wunderground v.1.15,2013-02-22 21:45:00,
2013-02-22 13:55:00,66.0,26.0,27.98,WSW,246,0.0,1.0,22,0.00,,,0.00,Wunderground v.1.15,2013-02-22 21:55:00,
2013-02-22 14:00:00,66.0,24.9,27.98,NNW,346,0.0,0.0,21,0.00,,,0.00,Wunderground v.1.15,2013-02-22 22:00:00,
2013-02-22 14:10:00,66.5,27.5,27.97,WNW,284,1.0,1.0,23,0.00,,,0.00,Wunderground v.1.15,2013-02-22 22:10:00,
2013-02-22 14:20:00,66.3,26.3,27.97,SSW,213,0.0,4.0,22,0.00,,,0.00,Wunderground v.1.15,2013-02-22 22:20:00,
2013-02-22 14:30:00,65.5,27.7,27.97,SW,226,1.0,1.0,24,0.00,,,0.00,Wunderground v.1.15,2013-02-22 22:30:00,
2013-02-22 14:40:00,65.7,26.9,27.97,NNE,23,1.0,1.0,23,0.00,,,0.00,Wunderground v.1.15,2013-02-22 22:40:00,
2013-02-22 14:50:00,66.5,27.5,27.96,NNW,327,1.0,1.0,23,0.00,,,0.00,Wunderground v.1.15,2013-02-22 22:50:00,
2013-02-22 15:00:00,66.7,27.7,27.97,SW,233,1.0,1.0,23,0.00,,,0.00,Wunderground v.1.15,2013-02-22 23:00:00,
2013-02-22 15:05:00,66.8,25.6,27.97,WNW,302,0.0,1.0,21,0.00,,,0.00,Wunderground v.1.15,2013-02-22 23:05:00,
2013-02-22 15:15:00,67.0,25.7,27.97,SW,224,1.0,4.0,21,0.00,,,0.00,Wunderground v.1.15,2013-02-22 23:15:00,
2013-02-22 15:25:00,65.8,26.9,27.97,WNW,296,2.0,2.0,23,0.00,,,0.00,Wunderground v.1.15,2013-02-22 23:25:00,
2013-02-22 15:35:00,65.4,25.5,27.96,SW,234,1.0,1.0,22,0.00,,,0.00,Wunderground v.1.15,2013-02-22 23:35:00,
2013-02-22 15:45:00,65.0,25.2,27.96,WSW,242,2.0,8.0,22,0.00,,,0.00,Wunderground v.1.15,2013-02-22 23:45:00,
2013-02-22 15:55:00,64.4,24.7,27.96,WSW,245,3.0,8.0,22,0.00,,,0.00,Wunderground v.1.15,2013-02-22 23:55:00,
2013-02-22 16:00:00,63.9,25.3,27.96,SW,227,2.0,2.0,23,0.00,,,0.00,Wunderground v.1.15,2013-02-23 00:00:00,
2013-02-22 16:10:00,63.2,28.6,27.97,SW,226,3.0,3.0,27,0.00,,,0.00,Wunderground v.1.15,2013-02-23 00:10:00,
2013-02-22 16:15:00,62.6,30.7,27.97,West,270,3.0,3.0,30,0.00,,,0.00,Wunderground v.1.15,2013-02-23 00:15:00,
2013-02-22 16:20:00,62.1,29.4,27.97,SW,236,3.0,3.0,29,0.00,,,0.00,Wunderground v.1.15,2013-02-23 00:20:00,
2013-02-22 16:30:00,61.4,29.7,27.97,WSW,241,1.0,1.0,30,0.00,,,0.00,Wunderground v.1.15,2013-02-23 00:30:00,
2013-02-22 16:40:00,60.6,30.6,27.98,WSW,243,2.0,2.0,32,0.00,,,0.00,Wunderground v.1.15,2013-02-23 00:40:00,
2013-02-22 16:50:00,60.0,30.8,27.98,West,263,1.0,5.0,33,0.00,,,0.00,Wunderground v.1.15,2013-02-23 00:50:00,
2013-02-22 16:55:00,59.8,30.6,27.98,WSW,246,2.0,5.0,33,0.00,,,0.00,Wunderground v.1.15,2013-02-23 00:55:00,
2013-02-22 17:00:00,59.6,30.4,27.98,SSW,212,1.0,2.0,33,0.00,,,0.00,Wunderground v.1.15,2013-02-23 01:00:00,
2013-02-22 17:10:00,59.1,30.7,27.98,SW,216,1.0,1.0,34,0.00,,,0.00,Wunderground v.1.15,2013-02-23 01:10:00,
2013-02-22 17:20:00,58.6,31.0,27.99,SW,231,1.0,1.0,35,0.00,,,0.00,Wunderground v.1.15,2013-02-23 01:20:00,
2013-02-22 17:30:00,58.1,30.6,27.99,SW,227,0.0,0.0,35,0.00,,,0.00,Wunderground v.1.15,2013-02-23 01:30:00,
2013-02-22 17:40:00,57.4,30.6,27.99,SW,228,0.0,0.0,36,0.00,,,0.00,Wunderground v.1.15,2013-02-23 01:40:00,
2013-02-22 17:50:00,56.6,29.2,28.00,SW,231,0.0,0.0,35,0.00,,,0.00,Wunderground v.1.15,2013-02-23 01:50:00,
2013-02-22 18:00:00,55.5,26.8,28.00,NNW,335,0.0,0.0,33,0.00,,,0.00,Wunderground v.1.15,2013-02-23 02:00:00,
2013-02-22 18:10:00,54.7,26.8,28.00,NNW,333,0.0,0.0,34,0.00,,,0.00,Wunderground v.1.15,2013-02-23 02:10:00,
2013-02-22 18:20:00,53.7,26.7,28.00,NNW,332,0.0,0.0,35,0.00,,,0.00,Wunderground v.1.15,2013-02-23 02:20:00,
2013-02-22 18:30:00,53.2,26.9,28.01,NNW,332,0.0,0.0,36,0.00,,,0.00,Wunderground v.1.15,2013-02-23 02:30:00,
2013-02-22 18:40:00,52.6,27.7,28.01,NNW,332,0.0,0.0,38,0.00,,,0.00,Wunderground v.1.15,2013-02-23 02:40:00,
2013-02-22 18:45:00,52.3,27.4,28.01,NNW,332,0.0,0.0,38,0.00,,,0.00,Wunderground v.1.15,2013-02-23 02:45:00,
2013-02-22 18:50:00,52.0,27.8,28.01,NNW,332,0.0,0.0,39,0.00,,,0.00,Wunderground v.1.15,2013-02-23 02:50:00,
2013-02-22 19:00:00,51.3,27.8,28.02,NNW,332,0.0,0.0,40,0.00,,,0.00,Wunderground v.1.15,2013-02-23 03:00:00,
2013-02-22 19:10:00,50.6,28.9,28.02,NNW,332,0.0,0.0,43,0.00,,,0.00,Wunderground v.1.15,2013-02-23 03:10:00,
2013-02-22 19:15:00,50.4,28.7,28.02,ESE,107,0.0,0.0,43,0.00,,,0.00,Wunderground v.1.15,2013-02-23 03:15:00,
2013-02-22 19:25:00,49.9,28.8,28.03,ESE,114,0.0,0.0,44,0.00,,,0.00,Wunderground v.1.15,2013-02-23 03:25:00,
2013-02-22 19:35:00,49.6,28.6,28.02,ESE,114,0.0,0.0,44,0.00,,,0.00,Wunderground v.1.15,2013-02-23 03:35:00,
2013-02-22 19:40:00,49.4,28.9,28.02,ESE,110,0.0,0.0,45,0.00,,,0.00,Wunderground v.1.15,2013-02-23 03:40:00,
2013-02-22 19:50:00,48.8,28.4,28.03,ESE,116,0.0,2.0,45,0.00,,,0.00,Wunderground v.1.15,2013-02-23 03:50:00,
2013-02-22 20:00:00,48.2,28.9,28.03,ESE,116,0.0,0.0,47,0.00,,,0.00,Wunderground v.1.15,2013-02-23 04:00:00,
2013-02-22 20:10:00,47.8,29.0,28.04,ESE,116,0.0,0.0,48,0.00,,,0.00,Wunderground v.1.15,2013-02-23 04:10:00,
2013-02-22 20:20:00,47.3,28.6,28.04,ESE,116,0.0,0.0,48,0.00,,,0.00,Wunderground v.1.15,2013-02-23 04:20:00,
2013-02-22 20:30:00,46.8,28.6,28.04,SE,129,0.0,0.0,49,0.00,,,0.00,Wunderground v.1.15,2013-02-23 04:30:00,
2013-02-22 20:35:00,46.6,28.4,28.05,SE,130,0.0,1.0,49,0.00,,,0.00,Wunderground v.1.15,2013-02-23 04:35:00,
2013-02-22 20:45:00,46.3,28.7,28.04,East,84,0.0,1.0,50,0.00,,,0.00,Wunderground v.1.15,2013-02-23 04:45:00,
2013-02-22 20:55:00,45.9,28.3,28.04,ESE,115,0.0,0.0,50,0.00,,,0.00,Wunderground v.1.15,2013-02-23 04:55:00,
2013-02-22 21:00:00,45.6,28.5,28.04,ESE,115,0.0,0.0,51,0.00,,,0.00,Wunderground v.1.15,2013-02-23 05:00:00,
2013-02-22 21:10:00,45.2,28.1,28.05,SE,126,1.0,1.0,51,0.00,,,0.00,Wunderground v.1.15,2013-02-23 05:10:00,
2013-02-22 21:15:00,45.1,28.0,28.05,ESE,110,1.0,1.0,51,0.00,,,0.00,Wunderground v.1.15,2013-02-23 05:15:00,
2013-02-22 21:20:00,44.9,28.3,28.05,ESE,111,1.0,1.0,52,0.00,,,0.00,Wunderground v.1.15,2013-02-23 05:20:00,
2013-02-22 21:30:00,44.5,28.0,28.04,ESE,110,0.0,0.0,52,0.00,,,0.00,Wunderground v.1.15,2013-02-23 05:30:00,
2013-02-22 21:40:00,43.9,27.9,28.05,ESE,111,0.0,1.0,53,0.00,,,0.00,Wunderground v.1.15,2013-02-23 05:40:00,
2013-02-22 21:50:00,43.4,27.8,28.04,ESE,107,0.0,0.0,54,0.00,,,0.00,Wunderground v.1.15,2013-02-23 05:50:00,
2013-02-22 22:00:00,42.9,28.3,28.05,ESE,107,0.0,0.0,56,0.00,,,0.00,Wunderground v.1.15,2013-02-23 06:00:00,
2013-02-22 22:10:00,42.5,27.9,28.04,ESE,106,0.0,0.0,56,0.00,,,0.00,Wunderground v.1.15,2013-02-23 06:10:00,
2013-02-22 22:20:00,42.2,28.0,28.04,ENE,65,0.0,0.0,57,0.00,,,0.00,Wunderground v.1.15,2013-02-23 06:20:00,
2013-02-22 22:25:00,42.2,28.0,28.04,East,93,1.0,1.0,57,0.00,,,0.00,Wunderground v.1.15,2013-02-23 06:25:00,
2013-02-22 22:35:00,42.2,28.0,28.04,East,90,0.0,1.0,57,0.00,,,0.00,Wunderground v.1.15,2013-02-23 06:35:00,
2013-02-22 22:45:00,41.9,27.8,28.04,East,92,0.0,1.0,57,0.00,,,0.00,Wunderground v.1.15,2013-02-23 06:45:00,
2013-02-22 22:55:00,41.6,27.9,28.03,East,82,0.0,3.0,58,0.00,,,0.00,Wunderground v.1.15,2013-02-23 06:55:00,
2013-02-22 23:00:00,41.6,27.9,28.03,ESE,119,0.0,0.0,58,0.00,,,0.00,Wunderground v.1.15,2013-02-23 07:00:00,
2013-02-22 23:10:00,41.6,27.9,28.03,East,90,1.0,1.0,58,0.00,,,0.00,Wunderground v.1.15,2013-02-23 07:10:00,
2013-02-22 23:20:00,41.3,28.0,28.03,East,88,0.0,0.0,59,0.00,,,0.00,Wunderground v.1.15,2013-02-23 07:20:00,
2013-02-22 23:25:00,41.2,27.9,28.03,SE,138,0.0,1.0,59,0.00,,,0.00,Wunderground v.1.15,2013-02-23 07:25:00,
2013-02-22 23:35:00,41.0,27.8,28.03,SE,134,0.0,1.0,59,0.00,,,0.00,Wunderground v.1.15,2013-02-23 07:35:00,
2013-02-22 23:45:00,40.8,27.6,28.02,ESE,112,0.0,0.0,59,0.00,,,0.00,Wunderground v.1.15,2013-02-23 07:45:00,
2013-02-22 23:50:00,40.7,27.9,28.02,ESE,112,0.0,0.0,60,0.00,,,0.00,Wunderground v.1.15,2013-02-23 07:50:00,
2013-02-22 23:55:00,40.5,27.7,28.02,NE,45,0.0,1.0,60,0.00,,,0.00,Wunderground v.1.15,2013-02-23 07:55:00,